createdAt,value
2023-05-19T00:31:25.666Z,84.24
2023-05-19T00:34:05.425Z,85.30
2023-05-19T00:37:18.897Z,84.73
2023-05-19T00:39:46.148Z,84.98
2023-05-19T00:42:30.006Z,85.91
2023-05-19T00:44:59.701Z,86.84
2023-05-19T00:47:26.530Z,87.33
2023-05-19T00:49:53.122Z,88.61
2023-05-19T00:52:19.925Z,88.41
2023-05-19T00:54:46.764Z,88.69
2023-05-19T00:57:15.014Z,89.44
2023-05-19T00:59:44.356Z,90.12
2023-05-19T01:02:10.977Z,90.20
2023-05-19T01:04:45.850Z,88.59
2023-05-19T01:07:12.865Z,89.97
2023-05-19T01:09:40.829Z,89.18
2023-05-19T01:12:07.954Z,87.28
2023-05-19T01:14:34.531Z,88.29
2023-05-19T01:17:05.572Z,88.33
2023-05-19T01:19:56.550Z,87.27
2023-05-19T01:22:45.006Z,87.41
2023-05-19T01:25:29.854Z,87.73
2023-05-19T01:28:30.996Z,87.78
2023-05-19T01:31:00.242Z,87.77
2023-05-19T01:33:29.973Z,88.15
2023-05-19T01:35:59.061Z,88.60
2023-05-19T01:38:28.380Z,88.60
2023-05-19T01:40:57.537Z,88.94
2023-05-19T01:43:26.412Z,87.60
2023-05-19T01:45:53.707Z,88.50
2023-05-19T01:59:21.524Z,90.41
2023-05-19T02:01:59.225Z,89.42
2023-05-19T02:34:05.173Z,88.80
2023-05-19T02:46:40.072Z,89.61
2023-05-19T02:49:07.937Z,89.74
2023-05-19T02:51:34.629Z,89.43
2023-05-19T02:54:01.225Z,89.83
2023-05-19T03:03:11.601Z,89.85
2023-05-19T03:05:38.538Z,90.91
2023-05-19T03:08:09.682Z,90.72
2023-05-19T03:10:39.324Z,91.13
2023-05-19T03:13:06.283Z,90.32
2023-05-19T03:15:35.466Z,90.62
2023-05-19T03:18:09.746Z,90.53
2023-05-19T03:20:43.630Z,88.75
2023-05-19T03:23:15.645Z,90.20
2023-05-19T03:26:05.167Z,89.76
2023-05-19T03:57:52.857Z,83.73
2023-05-19T04:03:27.866Z,83.00
2023-05-19T04:05:54.604Z,85.54
2023-05-19T04:08:31.286Z,86.56
2023-05-19T04:45:27.651Z,75.79
2023-05-19T04:48:03.016Z,74.38
2023-05-19T04:50:40.006Z,74.66
2023-05-19T04:53:12.392Z,74.21
2023-05-19T04:55:41.305Z,72.37
2023-05-19T04:58:12.684Z,73.07
2023-05-19T05:00:39.558Z,72.57
2023-05-19T05:03:09.611Z,70.38
2023-05-19T05:05:38.899Z,69.46
2023-05-19T05:08:12.571Z,67.61
2023-05-19T05:10:52.806Z,65.01
2023-05-19T05:13:46.193Z,64.97
2023-05-19T05:16:20.147Z,65.95
2023-05-19T05:18:50.785Z,66.94
2023-05-19T05:21:19.799Z,65.11
2023-05-19T05:23:47.966Z,64.90
2023-05-19T05:34:45.328Z,64.59
2023-05-19T05:37:19.529Z,64.32
2023-05-19T05:39:49.251Z,64.31
2023-05-19T05:42:30.412Z,64.16
2023-05-19T05:45:02.710Z,63.83
2023-05-19T05:47:38.423Z,63.25
2023-05-19T05:50:09.454Z,64.65
2023-05-19T05:52:55.269Z,65.06
2023-05-19T05:55:27.147Z,64.71
2023-05-19T05:58:07.976Z,64.64
2023-05-19T06:00:40.483Z,65.38
2023-05-19T06:03:08.731Z,66.47
2023-05-19T06:05:38.584Z,65.79
2023-05-19T06:08:06.119Z,64.75
2023-05-19T06:10:34.885Z,64.72
2023-05-19T06:13:01.856Z,64.46
2023-05-19T06:15:28.545Z,63.33
2023-05-19T06:17:55.125Z,62.80
2023-05-19T06:20:26.933Z,60.99
2023-05-19T06:28:43.223Z,61.45
2023-05-19T06:31:22.896Z,61.72
2023-05-19T06:33:51.651Z,62.55
2023-05-19T06:36:24.340Z,61.00
2023-05-19T06:38:55.072Z,60.81
2023-05-19T06:41:32.408Z,61.21
2023-05-19T06:43:58.961Z,59.74
2023-05-19T06:46:28.266Z,59.95
2023-05-19T06:48:54.796Z,58.15
2023-05-19T06:54:06.347Z,56.53
2023-05-19T06:56:36.682Z,57.27
2023-05-19T06:59:12.073Z,56.88
2023-05-19T07:01:41.765Z,58.14
2023-05-19T07:04:10.061Z,57.91
2023-05-19T07:06:40.405Z,57.26
2023-05-19T07:11:53.027Z,55.45
2023-05-19T07:14:24.056Z,57.67
2023-05-19T07:16:53.842Z,56.24
2023-05-19T07:19:20.677Z,55.74
2023-05-19T07:21:50.737Z,55.52
2023-05-19T07:24:17.307Z,56.69
2023-05-19T07:26:44.044Z,56.33
2023-05-19T07:29:12.933Z,55.04
2023-05-19T07:31:49.214Z,52.57
2023-05-19T07:34:18.789Z,53.30
2023-05-19T07:36:45.389Z,51.89
2023-05-19T07:39:20.980Z,52.23
2023-05-19T07:41:52.856Z,51.52
2023-05-19T07:44:22.948Z,49.71
2023-05-19T07:46:54.995Z,49.74
2023-05-19T07:49:45.398Z,47.26
2023-05-19T07:53:06.517Z,46.04
2023-05-19T07:58:53.378Z,45.01
2023-05-19T08:01:45.299Z,46.21
2023-05-19T08:05:35.151Z,44.23
2023-05-19T08:07:50.711Z,44.45
2023-05-19T08:10:20.135Z,45.84
2023-05-19T08:14:20.459Z,48.00
2023-05-19T08:19:32.738Z,48.84
2023-05-19T08:22:15.080Z,48.84
2023-05-19T08:24:50.777Z,50.87
2023-05-19T08:27:34.235Z,48.91
2023-05-19T08:30:50.578Z,48.91
2023-05-19T08:40:03.005Z,48.74
2023-05-19T08:42:58.332Z,49.71
2023-05-19T08:45:28.014Z,51.27
2023-05-19T08:51:22.966Z,51.74
2023-05-19T08:54:04.496Z,50.09
2023-05-19T08:56:51.832Z,49.70
2023-05-19T08:59:34.993Z,49.18
2023-05-19T09:02:15.805Z,50.65
2023-05-19T09:04:55.220Z,50.13
2023-05-19T09:08:16.350Z,50.41
2023-05-19T09:10:46.152Z,51.78
2023-05-19T09:13:28.902Z,51.61
2023-05-19T09:16:14.422Z,50.60
2023-05-19T09:19:37.518Z,49.23
2023-05-19T09:23:08.380Z,49.98
2023-05-19T09:26:01.110Z,49.88
2023-05-19T09:29:12.592Z,49.19
2023-05-19T09:32:08.220Z,48.52
2023-05-19T09:34:54.680Z,48.36
2023-05-19T09:46:19.994Z,46.35
2023-05-19T09:49:09.925Z,46.37
2023-05-19T09:51:41.952Z,46.10
2023-05-19T09:54:51.956Z,44.01
2023-05-19T09:57:33.471Z,45.27
2023-05-19T10:00:17.830Z,46.44
2023-05-19T10:02:51.117Z,44.86
2023-05-19T10:05:22.770Z,45.09
2023-05-19T10:07:52.378Z,44.93
2023-05-19T10:10:21.726Z,45.38
2023-05-19T10:12:49.761Z,45.15
2023-05-19T10:15:23.511Z,45.06
2023-05-19T10:17:53.290Z,46.88
2023-05-19T10:20:22.682Z,45.49
2023-05-19T10:22:49.168Z,45.80
2023-05-19T10:25:19.669Z,46.21
2023-05-19T10:27:53.112Z,44.65
2023-05-19T10:30:39.743Z,45.97
2023-05-19T10:33:10.384Z,45.89
2023-05-19T10:36:17.672Z,44.85
2023-05-19T10:39:12.396Z,43.26
2023-05-19T10:42:01.384Z,45.63
2023-05-19T10:44:47.031Z,44.95
2023-05-19T10:47:14.025Z,45.35
2023-05-19T10:49:40.878Z,43.07
2023-05-19T10:52:21.866Z,43.92
2023-05-19T10:54:49.115Z,43.05
2023-05-19T10:57:20.913Z,43.75
2023-05-19T10:59:49.568Z,43.22
2023-05-19T11:02:45.326Z,43.84
2023-05-19T11:05:18.216Z,45.14
2023-05-19T11:07:56.150Z,42.54
2023-05-19T11:10:23.950Z,44.36
2023-05-19T11:15:21.219Z,43.20
2023-05-19T11:17:49.684Z,43.46
2023-05-19T11:20:27.434Z,43.92
2023-05-19T11:23:08.350Z,42.39
2023-05-19T11:25:45.176Z,42.42
2023-05-19T11:28:14.630Z,42.70
2023-05-19T11:30:43.496Z,42.92
2023-05-19T11:33:10.701Z,42.87
2023-05-19T11:35:43.750Z,42.45
2023-05-19T11:38:11.600Z,42.89
2023-05-19T11:40:38.566Z,42.50
2023-05-19T11:43:10.950Z,42.71
2023-05-19T11:45:37.967Z,42.39
2023-05-19T11:48:05.501Z,43.43
2023-05-19T11:50:34.701Z,42.11
2023-05-19T11:53:03.504Z,42.07
2023-05-19T11:55:30.396Z,44.42
2023-05-19T11:58:05.070Z,42.34
2023-05-19T12:00:45.088Z,41.83
2023-05-19T12:03:12.231Z,42.87
2023-05-19T12:05:44.908Z,44.50
2023-05-19T12:08:12.915Z,42.20
2023-05-19T12:10:40.604Z,41.54
2023-05-19T12:13:10.662Z,42.52
2023-05-19T12:15:37.878Z,43.10
2023-05-19T12:18:04.888Z,40.58
2023-05-19T12:20:38.069Z,40.35
2023-05-19T12:23:05.174Z,37.64
2023-05-19T12:25:32.623Z,38.69
2023-05-19T12:28:02.996Z,39.03
2023-05-19T12:30:31.275Z,39.54
2023-05-19T12:32:58.590Z,41.29
2023-05-19T12:35:34.925Z,40.72
2023-05-19T12:38:11.250Z,40.88
2023-05-19T12:40:49.472Z,40.52
2023-05-19T12:43:24.034Z,41.34
2023-05-19T12:45:51.158Z,40.29
2023-05-19T12:48:18.432Z,39.62
2023-05-19T12:50:53.681Z,39.85
2023-05-19T12:53:23.018Z,40.99
2023-05-19T12:56:02.478Z,39.50
2023-05-19T12:58:38.896Z,40.16
2023-05-19T13:01:07.386Z,39.37
2023-05-19T13:03:52.168Z,38.82
2023-05-19T13:06:26.094Z,38.76
2023-05-19T13:08:54.800Z,39.38
2023-05-19T13:11:26.090Z,38.86
2023-05-19T13:13:52.983Z,38.54
2023-05-19T13:16:19.793Z,39.17
2023-05-19T13:18:49.000Z,39.12
2023-05-19T13:21:17.750Z,37.70
2023-05-19T13:23:47.748Z,37.43
2023-05-19T13:26:14.550Z,38.87
2023-05-19T13:28:42.061Z,37.71
2023-05-19T13:31:08.685Z,37.65
2023-05-19T13:33:35.757Z,36.95
2023-05-19T13:36:34.441Z,36.79
2023-05-19T13:42:17.662Z,37.66
2023-05-19T13:44:49.891Z,37.91
2023-05-19T13:47:16.805Z,37.06
2023-05-19T13:49:43.533Z,36.83
2023-05-19T13:52:13.308Z,37.44
2023-05-19T13:54:39.944Z,37.77
2023-05-19T13:57:06.903Z,36.32
2023-05-19T14:02:02.923Z,35.54
2023-05-19T14:04:40.500Z,35.31
2023-05-19T14:07:07.473Z,36.67
2023-05-19T14:09:34.049Z,37.35
2023-05-19T14:12:00.865Z,37.81
2023-05-19T14:14:27.668Z,36.83
2023-05-19T14:16:56.507Z,36.57
2023-05-19T14:19:30.523Z,37.27
2023-05-19T14:22:05.108Z,38.88
2023-05-19T14:24:34.789Z,38.52
2023-05-19T14:40:42.211Z,39.06
2023-05-19T14:43:18.238Z,38.76
2023-05-19T14:46:25.462Z,39.01
2023-05-19T14:48:52.481Z,39.70
2023-05-19T14:51:19.157Z,41.75
2023-05-19T14:53:45.872Z,40.44
2023-05-19T14:56:12.665Z,40.51
2023-05-19T14:58:41.555Z,40.09
2023-05-19T15:01:08.293Z,40.89
2023-05-19T15:03:37.069Z,40.54
2023-05-19T15:06:03.841Z,40.68
2023-05-19T15:08:30.944Z,40.86
2023-05-19T15:10:57.616Z,41.44
2023-05-19T15:13:24.420Z,42.01
2023-05-19T15:16:08.290Z,41.79
2023-05-19T15:18:42.024Z,42.21
2023-05-19T15:21:12.115Z,41.99
2023-05-19T15:23:39.260Z,42.26
2023-05-19T15:26:06.066Z,42.58
2023-05-19T15:28:35.884Z,43.07
2023-05-19T15:31:05.447Z,43.00
2023-05-19T15:33:32.159Z,43.05
2023-05-19T15:36:01.499Z,42.81
2023-05-19T15:38:30.043Z,43.48
2023-05-19T15:44:45.128Z,43.90
2023-05-19T15:47:14.967Z,44.11
2023-05-19T15:49:41.738Z,43.91
2023-05-19T15:52:09.723Z,43.93
2023-05-19T15:54:38.484Z,44.84
2023-05-19T15:57:08.197Z,44.88
2023-05-19T15:59:34.835Z,45.51
2023-05-19T16:02:01.721Z,45.34
2023-05-19T16:04:28.629Z,45.68
2023-05-19T16:06:55.286Z,45.85
2023-05-19T16:09:22.045Z,44.85
2023-05-19T16:12:01.811Z,44.91
2023-05-19T16:14:36.881Z,45.44
2023-05-19T16:17:05.064Z,44.78
2023-05-19T16:19:33.275Z,45.13
2023-05-19T16:21:59.814Z,46.07
2023-05-19T16:24:26.377Z,46.64
2023-05-19T16:26:53.823Z,46.96
2023-05-19T16:29:27.033Z,45.71
2023-05-19T16:32:51.882Z,45.87
2023-05-19T16:35:31.685Z,46.23
2023-05-19T16:38:35.841Z,46.75
2023-05-19T16:44:03.600Z,47.15
2023-05-19T16:46:33.123Z,46.71
2023-05-19T16:48:59.702Z,46.54
2023-05-19T16:51:48.279Z,47.45
2023-05-19T16:54:38.724Z,46.13
2023-05-19T16:57:26.488Z,46.96
2023-05-19T17:02:45.352Z,47.26
2023-05-19T17:05:11.967Z,48.25
2023-05-19T17:07:46.413Z,48.15
2023-05-19T17:10:18.167Z,48.23
2023-05-19T17:12:46.444Z,48.45
2023-05-19T17:15:15.931Z,49.22
2023-05-19T17:17:43.672Z,49.10
2023-05-19T17:20:19.604Z,49.06
2023-05-19T17:22:46.223Z,49.98
2023-05-19T17:25:12.765Z,50.03
2023-05-19T17:37:29.535Z,51.00
2023-05-19T17:40:36.340Z,51.10
2023-05-19T17:43:06.213Z,51.72
2023-05-19T17:45:35.660Z,51.78
2023-05-19T17:48:04.723Z,52.08
2023-05-19T17:50:42.871Z,52.18
2023-05-19T17:53:15.360Z,52.28
2023-05-19T17:56:22.648Z,52.08
2023-05-19T17:59:05.021Z,52.30
2023-05-19T18:01:39.942Z,52.58
2023-05-19T18:04:23.355Z,52.47
2023-05-19T18:07:23.034Z,52.77
2023-05-19T18:09:59.898Z,53.37
2023-05-19T18:12:35.882Z,53.45
2023-05-19T18:15:18.856Z,53.93
2023-05-19T18:17:57.139Z,53.76
2023-05-19T18:20:23.736Z,53.47
2023-05-19T18:23:01.537Z,53.78
2023-05-19T18:25:28.020Z,54.76
2023-05-19T18:27:55.921Z,54.53
2023-05-19T18:30:23.876Z,54.63
2023-05-19T18:32:53.818Z,55.28
2023-05-19T18:35:21.512Z,55.31
2023-05-19T18:37:50.453Z,55.41
2023-05-19T18:40:19.243Z,56.02
2023-05-19T18:42:47.971Z,55.95
2023-05-19T18:45:25.061Z,55.96
2023-05-19T18:47:51.770Z,56.63
2023-05-19T18:50:20.535Z,56.91
2023-05-19T18:52:55.918Z,57.32
2023-05-19T18:55:25.185Z,57.45
2023-05-19T18:57:56.959Z,57.88
2023-05-19T19:00:30.514Z,58.42
2023-05-19T19:03:15.086Z,57.84
2023-05-19T19:05:41.741Z,58.35
2023-05-19T19:08:08.212Z,58.41
2023-05-19T19:10:38.976Z,59.01
2023-05-19T19:13:06.008Z,58.52
2023-05-19T19:15:58.659Z,59.30
2023-05-19T19:18:53.360Z,59.40
2023-05-19T19:21:34.032Z,59.87
2023-05-19T19:24:10.754Z,60.13
2023-05-19T19:30:32.478Z,61.58
2023-05-19T19:33:11.388Z,61.20
2023-05-19T19:35:37.997Z,61.78
2023-05-19T19:38:11.832Z,61.92
2023-05-19T19:40:45.773Z,62.65
2023-05-19T19:43:30.590Z,62.73
2023-05-19T19:46:11.683Z,63.18
2023-05-19T19:48:47.202Z,62.89
2023-05-19T19:51:13.708Z,62.78
2023-05-19T19:53:50.899Z,63.19
2023-05-19T19:56:35.781Z,63.60
2023-05-19T19:59:27.778Z,63.86
2023-05-19T20:02:07.677Z,64.11
2023-05-19T20:04:39.730Z,64.70
2023-05-19T20:07:08.233Z,65.46
2023-05-19T20:09:34.801Z,65.16
2023-05-19T20:12:01.374Z,65.55
2023-05-19T20:14:27.861Z,65.75
2023-05-19T20:16:54.574Z,65.98
2023-05-19T20:19:21.719Z,65.95
2023-05-19T20:21:49.434Z,66.39
2023-05-19T20:24:35.773Z,66.68
2023-05-19T20:27:02.303Z,66.77
2023-05-19T20:29:31.204Z,67.87
2023-05-19T20:31:57.698Z,67.78
2023-05-19T20:34:24.233Z,67.87
2023-05-19T20:36:50.982Z,67.98
2023-05-19T20:39:19.862Z,68.38
2023-05-19T20:41:46.471Z,68.47
2023-05-19T20:44:20.704Z,68.85
2023-05-19T20:46:49.985Z,69.23
2023-05-19T20:49:19.852Z,69.20
2023-05-19T20:51:54.108Z,69.56
2023-05-19T20:54:20.715Z,69.49
2023-05-19T20:56:47.515Z,69.70
2023-05-19T20:59:14.240Z,70.02
2023-05-19T21:01:43.777Z,70.24
2023-05-19T21:04:28.171Z,71.27
2023-05-19T21:07:08.991Z,71.69
2023-05-19T21:09:38.831Z,71.25
2023-05-19T21:12:06.408Z,72.40
2023-05-19T21:14:32.908Z,71.92
2023-05-19T21:17:11.000Z,72.15
2023-05-19T21:19:51.852Z,72.20
2023-05-19T21:25:28.720Z,73.15
2023-05-19T21:27:56.120Z,72.92
2023-05-19T21:30:27.414Z,73.84
2023-05-19T21:33:00.595Z,73.60
2023-05-19T21:35:35.003Z,73.94
2023-05-19T21:38:30.028Z,74.30
2023-05-19T21:43:59.250Z,74.46
2023-05-19T21:46:32.153Z,74.93
2023-05-19T21:49:01.679Z,74.91
2023-05-19T21:51:34.033Z,76.31
2023-05-19T21:54:05.308Z,77.23
2023-05-19T21:56:34.419Z,78.20
2023-05-19T21:59:01.140Z,77.00
2023-05-19T22:01:30.536Z,76.64
2023-05-19T22:03:57.123Z,76.95
2023-05-19T22:06:23.841Z,78.60
2023-05-19T22:08:52.318Z,78.10
2023-05-19T22:11:18.958Z,78.47
2023-05-19T22:13:45.941Z,78.67
2023-05-19T22:16:21.141Z,78.71
2023-05-19T22:18:48.130Z,79.14
2023-05-19T22:21:14.927Z,79.43
2023-05-19T22:23:43.904Z,78.78
2023-05-19T22:26:13.124Z,79.84
2023-05-19T22:28:56.092Z,79.69
2023-05-19T22:31:22.669Z,78.72
2023-05-19T22:33:51.616Z,79.47
2023-05-19T22:36:18.429Z,79.34
2023-05-19T22:38:45.062Z,79.24
2023-05-19T22:41:14.235Z,78.60
2023-05-19T22:46:20.591Z,78.50
2023-05-19T22:48:47.150Z,78.77
2023-05-19T22:51:13.715Z,79.52
2023-05-19T22:53:45.113Z,79.61
2023-05-19T22:56:11.578Z,79.63
2023-05-19T22:58:38.145Z,79.61
2023-05-19T23:01:04.746Z,80.18
2023-05-19T23:03:31.314Z,78.59
2023-05-19T23:05:57.776Z,79.49
2023-05-19T23:08:24.242Z,80.36
2023-05-19T23:10:51.019Z,80.24
2023-05-19T23:13:17.609Z,79.90
2023-05-19T23:15:44.084Z,79.54
2023-05-19T23:18:11.591Z,79.79
2023-05-19T23:20:38.231Z,78.60
2023-05-19T23:23:04.775Z,79.39
2023-05-19T23:25:32.034Z,79.66
2023-05-19T23:27:58.831Z,79.37
2023-05-19T23:30:25.326Z,78.70
2023-05-19T23:32:52.990Z,78.73
2023-05-19T23:35:20.575Z,79.14
2023-05-19T23:37:47.096Z,79.28
2023-05-19T23:40:14.924Z,78.99
2023-05-19T23:42:41.592Z,79.47
2023-05-19T23:45:08.647Z,79.38
2023-05-19T23:47:35.674Z,79.96
2023-05-19T23:50:04.613Z,79.48
2023-05-19T23:52:32.852Z,79.11
2023-05-19T23:54:59.568Z,79.12
2023-05-19T23:57:41.353Z,79.05
